Xuzhou, China
Current Conditions -  °F | °C
As of 6:00 PM on Thursday 23 Oct 2014 (Local Time) from ZSOF Reporting Station
Clear Clear  
Wind Chill: 68°   Ceiling: Unl
Heat Index: 68°   Visibility: 6mi
Dew Point: 52°   Wind: 7mph
Humidity: 56%   Direction: 120°ESE
Pressure: 30.03"   Gusts: NA
Location:  34.27°N, 117.18°E
Report Text: ZSOF 231000Z 12003MPS CAVOK 20/11 Q1017 NOSIG
Loading
Personal Weather Stations






























Interactive Weather Map
Tropical Storm Tracking
New forecast layout! Learn more

10-Day Weather Forecast

Advertisements
Track Severe Weather on mobile